Time,TemperatureF,DewpointF,PressureIn,WindDirection,WindDirectionDegrees,WindSpeedMPH,WindSpeedGustMPH,Humidity,HourlyPrecipIn,Conditions,Clouds,dailyrainin,SolarRadiationWatts/m^2,SoftwareType,DateUTC
2013-10-04 00:25:00,23.0,21.0,-100.00,NW,317,7.0,22.0,93,0.00,,,0.00,0.000000,,2013-10-04 06:25:00,
2013-10-04 00:35:00,23.0,21.0,-100.00,NW,317,7.0,22.0,93,0.00,,,0.00,0.000000,,2013-10-04 06:35:00,
2013-10-04 00:45:00,23.0,21.0,-100.00,NW,317,7.0,22.0,93,0.00,,,0.00,0.000000,,2013-10-04 06:45:00,
2013-10-04 00:54:00,23.0,21.0,-100.00,NW,317,7.0,22.0,93,0.00,,,0.00,0.000000,,2013-10-04 06:54:00,
2013-10-04 01:25:00,22.0,20.0,-100.00,North,8,9.0,17.0,93,0.00,,,0.00,0.000000,,2013-10-04 07:25:00,
2013-10-04 01:34:00,22.0,20.0,-100.00,North,8,9.0,17.0,93,0.00,,,0.00,0.000000,,2013-10-04 07:34:00,
2013-10-04 01:44:00,22.0,20.0,-100.00,North,8,9.0,17.0,93,0.00,,,0.00,0.000000,,2013-10-04 07:44:00,
2013-10-04 01:54:00,22.0,20.0,-100.00,North,8,9.0,17.0,93,0.00,,,0.00,0.000000,,2013-10-04 07:54:00,
2013-10-04 02:25:00,23.0,21.0,-100.00,WSW,239,3.0,15.0,93,0.00,,,0.00,0.000000,,2013-10-04 08:25:00,
2013-10-04 02:34:00,23.0,21.0,-100.00,WSW,239,3.0,15.0,93,0.00,,,0.00,0.000000,,2013-10-04 08:34:00,
2013-10-04 02:44:00,23.0,21.0,-100.00,WSW,239,3.0,15.0,93,0.00,,,0.00,0.000000,,2013-10-04 08:44:00,
2013-10-04 02:54:00,23.0,21.0,-100.00,WSW,239,3.0,15.0,93,0.00,,,0.00,0.000000,,2013-10-04 08:54:00,
2013-10-04 02:55:00,23.0,21.0,-100.00,South,188,2.0,8.0,93,0.00,,,0.00,0.000000,,2013-10-04 08:55:00,
2013-10-04 03:25:00,23.0,21.0,-100.00,South,188,2.0,8.0,93,0.00,,,0.00,0.000000,,2013-10-04 09:25:00,
2013-10-04 03:36:00,23.0,21.0,-100.00,South,188,2.0,8.0,93,0.00,,,0.00,0.000000,,2013-10-04 09:36:00,
2013-10-04 03:46:00,23.0,21.0,-100.00,South,188,2.0,8.0,93,0.00,,,0.00,0.000000,,2013-10-04 09:46:00,
2013-10-04 03:55:00,23.0,21.0,-100.00,WNW,287,8.0,13.0,93,0.00,,,0.00,0.000000,,2013-10-04 09:55:00,
2013-10-04 04:27:00,23.0,21.0,-100.00,WNW,287,8.0,13.0,93,0.00,,,0.00,0.000000,,2013-10-04 10:27:00,
2013-10-04 04:37:00,23.0,21.0,-100.00,WNW,287,8.0,13.0,93,0.00,,,0.00,0.000000,,2013-10-04 10:37:00,
2013-10-04 04:47:00,23.0,21.0,-100.00,WNW,287,8.0,13.0,93,0.00,,,0.00,0.000000,,2013-10-04 10:47:00,
2013-10-04 04:55:00,20.0,18.0,-100.00,NW,320,7.0,20.0,92,0.00,,,0.00,0.000000,,2013-10-04 10:55:00,
2013-10-04 05:27:00,20.0,18.0,-100.00,NW,320,7.0,20.0,92,0.00,,,0.00,0.000000,,2013-10-04 11:27:00,
2013-10-04 05:37:00,20.0,18.0,-100.00,NW,320,7.0,20.0,92,0.00,,,0.00,0.000000,,2013-10-04 11:37:00,
2013-10-04 05:46:00,20.0,18.0,-100.00,NW,320,7.0,20.0,92,0.00,,,0.00,0.000000,,2013-10-04 11:46:00,
2013-10-04 05:55:00,20.0,18.0,-100.00,North,0,8.0,18.0,91,0.00,,,0.00,0.000000,,2013-10-04 11:55:00,
2013-10-04 06:27:00,20.0,18.0,-100.00,North,0,8.0,18.0,91,0.00,,,0.00,0.000000,,2013-10-04 12:27:00,
2013-10-04 06:36:00,20.0,18.0,-100.00,North,0,8.0,18.0,91,0.00,,,0.00,0.000000,,2013-10-04 12:36:00,
2013-10-04 06:46:00,20.0,18.0,-100.00,North,0,8.0,18.0,91,0.00,,,0.00,0.000000,,2013-10-04 12:46:00,
2013-10-04 06:55:00,19.0,17.0,-100.00,NW,316,8.0,13.0,91,0.00,,,0.00,0.000000,,2013-10-04 12:55:00,
2013-10-04 07:26:00,19.0,17.0,-100.00,NW,316,8.0,13.0,91,0.00,,,0.00,0.000000,,2013-10-04 13:26:00,
2013-10-04 07:36:00,19.0,17.0,-100.00,NW,316,8.0,13.0,91,0.00,,,0.00,0.000000,,2013-10-04 13:36:00,
2013-10-04 07:46:00,19.0,17.0,-100.00,NW,316,8.0,13.0,91,0.00,,,0.00,0.000000,,2013-10-04 13:46:00,
2013-10-04 07:55:00,20.0,18.0,-100.00,NW,307,7.0,14.0,91,0.00,,,0.00,15.000000,,2013-10-04 13:55:00,
2013-10-04 08:26:00,20.0,18.0,-100.00,NW,307,7.0,14.0,91,0.00,,,0.00,15.000000,,2013-10-04 14:26:00,
2013-10-04 08:36:00,20.0,18.0,-100.00,NW,307,7.0,14.0,91,0.00,,,0.00,15.000000,,2013-10-04 14:36:00,
2013-10-04 08:46:00,20.0,18.0,-100.00,NW,307,7.0,14.0,91,0.00,,,0.00,15.000000,,2013-10-04 14:46:00,
2013-10-04 08:55:00,21.0,19.0,-100.00,WNW,301,7.0,14.0,91,0.00,,,0.00,122.000000,,2013-10-04 14:55:00,
2013-10-04 09:27:00,21.0,19.0,-100.00,WNW,301,7.0,14.0,91,0.00,,,0.00,122.000000,,2013-10-04 15:27:00,
2013-10-04 09:37:00,21.0,19.0,-100.00,WNW,301,7.0,14.0,91,0.00,,,0.00,122.000000,,2013-10-04 15:37:00,
2013-10-04 09:47:00,21.0,19.0,-100.00,WNW,301,7.0,14.0,91,0.00,,,0.00,122.000000,,2013-10-04 15:47:00,
2013-10-04 09:55:00,23.0,21.0,-100.00,NW,305,8.0,16.0,90,0.00,,,0.00,176.000000,,2013-10-04 15:55:00,
2013-10-04 10:27:00,23.0,21.0,-100.00,NW,305,8.0,16.0,90,0.00,,,0.00,176.000000,,2013-10-04 16:27:00,
2013-10-04 10:37:00,23.0,21.0,-100.00,NW,305,8.0,16.0,90,0.00,,,0.00,176.000000,,2013-10-04 16:37:00,
2013-10-04 10:47:00,23.0,21.0,-100.00,NW,305,8.0,16.0,90,0.00,,,0.00,176.000000,,2013-10-04 16:47:00,
2013-10-04 11:27:00,25.0,22.0,-100.00,NW,315,7.0,13.0,88,0.00,,,0.00,347.000000,,2013-10-04 17:27:00,
2013-10-04 11:55:00,27.0,24.0,-100.00,NNW,327,8.0,18.0,87,0.03,,,0.03,538.000000,,2013-10-04 17:55:00,
2013-10-04 12:27:00,27.0,24.0,-100.00,NNW,327,8.0,18.0,87,0.03,,,0.03,538.000000,,2013-10-04 18:27:00,
2013-10-04 12:38:00,27.0,24.0,-100.00,NNW,327,8.0,18.0,87,0.03,,,0.03,538.000000,,2013-10-04 18:38:00,
2013-10-04 13:22:00,25.0,22.0,-100.00,NW,318,9.0,17.0,88,0.06,,,0.09,542.000000,,2013-10-04 19:22:00,
2013-10-04 13:32:00,25.0,22.0,-100.00,NW,318,9.0,17.0,88,0.06,,,0.09,542.000000,,2013-10-04 19:32:00,
2013-10-04 13:43:00,25.0,22.0,-100.00,NW,318,9.0,17.0,88,0.06,,,0.09,542.000000,,2013-10-04 19:43:00,
2013-10-04 13:52:00,25.0,22.0,-100.00,NW,318,9.0,17.0,88,0.06,,,0.09,542.000000,,2013-10-04 19:52:00,
2013-10-04 14:22:00,23.0,20.0,-100.00,NW,326,7.0,15.0,88,0.02,,,0.11,379.000000,,2013-10-04 20:22:00,
2013-10-04 14:32:00,23.0,20.0,-100.00,NW,326,7.0,15.0,88,0.02,,,0.11,379.000000,,2013-10-04 20:32:00,
2013-10-04 14:42:00,23.0,20.0,-100.00,NW,326,7.0,15.0,88,0.02,,,0.11,379.000000,,2013-10-04 20:42:00,
2013-10-04 14:52:00,23.0,20.0,-100.00,NW,326,7.0,15.0,88,0.02,,,0.11,379.000000,,2013-10-04 20:52:00,
2013-10-04 15:22:00,20.0,17.0,-100.00,North,351,9.0,18.0,89,0.00,,,0.11,255.000000,,2013-10-04 21:22:00,
2013-10-04 15:33:00,20.0,17.0,-100.00,North,351,9.0,18.0,89,0.00,,,0.11,255.000000,,2013-10-04 21:33:00,
2013-10-04 15:43:00,20.0,17.0,-100.00,North,351,9.0,18.0,89,0.00,,,0.11,255.000000,,2013-10-04 21:43:00,
2013-10-04 15:54:00,20.0,17.0,-100.00,North,351,9.0,18.0,89,0.00,,,0.11,255.000000,,2013-10-04 21:54:00,
2013-10-04 16:23:00,19.0,16.0,-100.00,North,2,10.0,22.0,88,0.00,,,0.11,173.000000,,2013-10-04 22:23:00,
2013-10-04 16:33:00,19.0,16.0,-100.00,North,2,10.0,22.0,88,0.00,,,0.11,173.000000,,2013-10-04 22:33:00,
2013-10-04 16:42:00,19.0,16.0,-100.00,North,2,10.0,22.0,88,0.00,,,0.11,173.000000,,2013-10-04 22:42:00,
2013-10-04 16:52:00,19.0,16.0,-100.00,North,2,10.0,22.0,88,0.00,,,0.11,173.000000,,2013-10-04 22:52:00,
2013-10-04 17:22:00,20.0,17.0,-100.00,North,356,9.0,19.0,88,0.00,,,0.11,215.000000,,2013-10-04 23:22:00,
2013-10-04 17:33:00,20.0,17.0,-100.00,North,356,9.0,19.0,88,0.00,,,0.11,215.000000,,2013-10-04 23:33:00,
2013-10-04 17:42:00,20.0,17.0,-100.00,North,356,9.0,19.0,88,0.00,,,0.11,215.000000,,2013-10-04 23:42:00,
2013-10-04 17:53:00,20.0,17.0,-100.00,North,356,9.0,19.0,88,0.00,,,0.11,215.000000,,2013-10-04 23:53:00,
2013-10-04 18:22:00,18.0,15.0,-100.00,North,4,10.0,17.0,89,0.00,,,0.11,98.000000,,2013-10-05 00:22:00,
2013-10-04 18:32:00,18.0,15.0,-100.00,North,4,10.0,17.0,89,0.00,,,0.11,98.000000,,2013-10-05 00:32:00,
2013-10-04 18:42:00,18.0,15.0,-100.00,North,4,10.0,17.0,89,0.00,,,0.11,98.000000,,2013-10-05 00:42:00,
2013-10-04 18:52:00,18.0,15.0,-100.00,North,4,10.0,17.0,89,0.00,,,0.11,98.000000,,2013-10-05 00:52:00,
2013-10-04 19:21:00,17.0,15.0,-100.00,North,354,8.0,16.0,90,0.00,,,0.11,21.000000,,2013-10-05 01:21:00,
2013-10-04 19:32:00,17.0,15.0,-100.00,North,354,8.0,16.0,90,0.00,,,0.11,21.000000,,2013-10-05 01:32:00,
2013-10-04 19:43:00,17.0,15.0,-100.00,North,354,8.0,16.0,90,0.00,,,0.11,21.000000,,2013-10-05 01:43:00,
2013-10-04 19:52:00,17.0,15.0,-100.00,North,354,8.0,16.0,90,0.00,,,0.11,21.000000,,2013-10-05 01:52:00,
2013-10-04 20:22:00,16.0,13.0,-100.00,NNE,19,5.0,15.0,89,0.00,,,0.11,1.000000,,2013-10-05 02:22:00,
2013-10-04 20:32:00,16.0,13.0,-100.00,NNE,19,5.0,15.0,89,0.00,,,0.11,1.000000,,2013-10-05 02:32:00,
2013-10-04 20:42:00,16.0,13.0,-100.00,NNE,19,5.0,15.0,89,0.00,,,0.11,1.000000,,2013-10-05 02:42:00,
2013-10-04 20:52:00,16.0,13.0,-100.00,NNE,19,5.0,15.0,89,0.00,,,0.11,1.000000,,2013-10-05 02:52:00,
2013-10-04 20:55:00,16.0,13.0,-100.00,North,6,5.0,10.0,89,0.00,,,0.11,0.000000,,2013-10-05 02:55:00,
2013-10-04 21:23:00,16.0,13.0,-100.00,North,6,5.0,10.0,89,0.00,,,0.11,0.000000,,2013-10-05 03:23:00,
2013-10-04 21:34:00,16.0,13.0,-100.00,North,6,5.0,10.0,89,0.00,,,0.11,0.000000,,2013-10-05 03:34:00,
2013-10-04 21:45:00,16.0,13.0,-100.00,North,6,5.0,10.0,89,0.00,,,0.11,0.000000,,2013-10-05 03:45:00,
2013-10-04 22:24:00,16.0,13.0,-100.00,NE,50,4.0,8.0,89,0.00,,,0.11,0.000000,,2013-10-05 04:24:00,
2013-10-04 22:33:00,16.0,13.0,-100.00,NE,50,4.0,8.0,89,0.00,,,0.11,0.000000,,2013-10-05 04:33:00,
2013-10-04 22:43:00,16.0,13.0,-100.00,NE,50,4.0,8.0,89,0.00,,,0.11,0.000000,,2013-10-05 04:43:00,
2013-10-04 22:53:00,16.0,13.0,-100.00,NE,50,4.0,8.0,89,0.00,,,0.11,0.000000,,2013-10-05 04:53:00,
2013-10-04 23:22:00,16.0,13.0,-100.00,NE,52,3.0,5.0,89,0.00,,,0.11,0.000000,,2013-10-05 05:22:00,
2013-10-04 23:34:00,16.0,13.0,-100.00,NE,52,3.0,5.0,89,0.00,,,0.11,0.000000,,2013-10-05 05:34:00,
2013-10-04 23:43:00,16.0,13.0,-100.00,NE,52,3.0,5.0,89,0.00,,,0.11,0.000000,,2013-10-05 05:43:00,
2013-10-04 23:52:00,16.0,13.0,-100.00,NE,52,3.0,5.0,89,0.00,,,0.11,0.000000,,2013-10-05 05:52:00,